createdAt,value
2018-11-22T00:00:03.448Z,17.17
2018-11-22T00:06:20.390Z,17.10
2018-11-22T00:08:49.568Z,17.77
2018-11-22T00:18:06.352Z,18.17
2018-11-22T00:23:25.263Z,17.87
2018-11-22T00:25:56.192Z,17.63
2018-11-22T00:31:58.696Z,18.93
2018-11-22T00:34:27.139Z,19.87
2018-11-22T00:37:39.829Z,19.20
2018-11-22T00:40:32.871Z,18.77
2018-11-22T00:43:01.924Z,19.60
2018-11-22T00:45:30.468Z,18.57
2018-11-22T00:48:05.206Z,19.07
2018-11-22T00:50:56.835Z,21.23
2018-11-22T00:53:28.233Z,20.10
2018-11-22T01:02:31.963Z,20.00
2018-11-22T01:08:51.675Z,19.23
2018-11-22T01:15:28.336Z,20.60
2018-11-22T01:18:38.224Z,22.43
2018-11-22T01:21:24.168Z,22.47
2018-11-22T01:24:19.358Z,21.50
2018-11-22T01:26:51.099Z,22.90
2018-11-22T01:29:22.357Z,20.77
2018-11-22T01:31:58.807Z,21.73
2018-11-22T01:34:32.351Z,22.37
2018-11-22T01:37:03.455Z,21.60
2018-11-22T01:39:45.523Z,21.80
2018-11-22T01:43:03.495Z,20.53
2018-11-22T01:45:35.310Z,21.63
2018-11-22T01:51:59.607Z,20.07
2018-11-22T01:54:31.053Z,20.50
2018-11-22T01:57:11.479Z,20.37
2018-11-22T01:59:58.478Z,19.90
2018-11-22T02:02:30.427Z,20.90
2018-11-22T02:05:02.090Z,20.03
2018-11-22T02:07:30.682Z,19.90
2018-11-22T02:09:59.504Z,20.40
2018-11-22T02:12:34.843Z,21.00
2018-11-22T02:15:16.401Z,20.30
2018-11-22T02:17:44.970Z,19.53
2018-11-22T02:20:15.720Z,21.10
2018-11-22T02:22:51.127Z,21.80
2018-11-22T02:25:21.201Z,21.90
2018-11-22T02:27:52.689Z,21.33
2018-11-22T02:30:28.283Z,20.63
2018-11-22T02:32:58.675Z,23.47
2018-11-22T02:44:55.988Z,23.53
2018-11-22T02:48:02.146Z,23.10
2018-11-22T02:50:58.123Z,24.13
2018-11-22T02:53:28.657Z,25.17
2018-11-22T02:55:59.830Z,24.60
2018-11-22T02:58:31.861Z,25.77
2018-11-22T03:01:00.754Z,24.97
2018-11-22T03:03:32.361Z,26.97
2018-11-22T03:06:04.215Z,26.33
2018-11-22T03:08:46.170Z,26.70
2018-11-22T03:11:28.785Z,26.37
2018-11-22T03:13:57.826Z,25.50
2018-11-22T03:16:35.422Z,27.00
2018-11-22T03:22:09.644Z,27.20
2018-11-22T03:24:47.821Z,28.10
2018-11-22T03:30:37.888Z,27.53
2018-11-22T03:33:07.137Z,28.30
2018-11-22T03:35:38.648Z,29.13
2018-11-22T03:41:51.520Z,27.47
2018-11-22T03:44:26.142Z,28.40
2018-11-22T03:48:15.455Z,27.57
2018-11-22T03:50:22.931Z,27.27
2018-11-22T03:55:56.258Z,28.77
2018-11-22T03:58:38.537Z,29.33
2018-11-22T04:01:07.177Z,29.07
2018-11-22T04:03:39.648Z,28.43
2018-11-22T04:06:14.491Z,28.50
2018-11-22T04:08:49.618Z,28.47
2018-11-22T04:11:17.996Z,27.80
2018-11-22T04:13:46.628Z,28.57
2018-11-22T04:16:18.919Z,27.00
2018-11-22T04:18:47.613Z,27.90
2018-11-22T04:21:16.587Z,27.30
2018-11-22T04:24:46.908Z,29.33
2018-11-22T04:30:19.461Z,29.40
2018-11-22T04:35:36.090Z,28.87
2018-11-22T04:37:54.402Z,28.17
2018-11-22T04:40:26.754Z,29.93
2018-11-22T04:42:58.658Z,29.40
2018-11-22T04:45:42.137Z,29.97
2018-11-22T04:48:20.427Z,29.67
2018-11-22T04:50:49.031Z,28.27
2018-11-22T04:53:24.473Z,28.47
2018-11-22T04:55:59.207Z,29.37
2018-11-22T04:58:37.403Z,29.20
2018-11-22T05:04:14.663Z,28.63
2018-11-22T05:07:02.721Z,29.23
2018-11-22T05:09:49.150Z,27.73
2018-11-22T05:13:20.871Z,27.73
2018-11-22T05:15:51.299Z,28.37
2018-11-22T05:26:29.257Z,29.83
2018-11-22T05:28:57.766Z,31.60
2018-11-22T05:31:29.415Z,30.77
2018-11-22T05:34:43.486Z,33.30
2018-11-22T05:37:15.151Z,35.80
2018-11-22T05:39:44.790Z,41.10
2018-11-22T05:42:26.969Z,35.10
2018-11-22T05:45:01.413Z,41.07
2018-11-22T05:47:17.875Z,35.40
2018-11-22T05:49:46.046Z,31.63
2018-11-22T05:52:14.254Z,30.57
2018-11-22T05:54:42.445Z,31.57
2018-11-22T05:57:10.640Z,30.27
2018-11-22T05:59:38.891Z,29.50
2018-11-22T06:02:07.072Z,28.80
2018-11-22T06:04:35.373Z,27.40
2018-11-22T06:07:03.724Z,29.33
2018-11-22T06:09:31.934Z,30.27
2018-11-22T06:12:00.131Z,29.60
2018-11-22T06:14:28.291Z,30.13
2018-11-22T06:16:56.485Z,28.73
2018-11-22T06:19:24.673Z,29.20
2018-11-22T06:21:52.895Z,29.37
2018-11-22T06:24:21.144Z,27.80
2018-11-22T06:26:49.340Z,29.03
2018-11-22T06:29:17.899Z,29.03
2018-11-22T06:31:46.099Z,29.83
2018-11-22T06:34:14.523Z,28.90
2018-11-22T06:36:43.010Z,27.93
2018-11-22T06:39:11.567Z,29.73
2018-11-22T06:41:39.775Z,27.40
2018-11-22T06:44:08.189Z,28.33
2018-11-22T06:46:36.381Z,28.40
2018-11-22T06:49:04.641Z,27.40
2018-11-22T06:51:33.061Z,27.60
2018-11-22T06:54:02.342Z,28.20
2018-11-22T06:56:30.950Z,26.80
2018-11-22T06:58:59.298Z,29.03
2018-11-22T07:01:27.528Z,33.83
2018-11-22T07:03:55.769Z,31.00
2018-11-22T07:06:24.027Z,29.93
2018-11-22T07:08:52.332Z,29.57
2018-11-22T07:11:20.493Z,28.83
2018-11-22T07:13:48.782Z,31.10
2018-11-22T07:16:17.011Z,30.80
2018-11-22T07:18:45.260Z,31.33
2018-11-22T07:21:13.589Z,29.80
2018-11-22T07:23:41.833Z,30.77
2018-11-22T07:26:10.070Z,29.87
2018-11-22T07:28:38.291Z,29.37
2018-11-22T07:31:06.522Z,30.43
2018-11-22T07:33:38.221Z,29.57
2018-11-22T07:36:03.185Z,29.40
2018-11-22T07:38:31.400Z,29.30
2018-11-22T07:40:59.629Z,31.13
2018-11-22T07:43:27.827Z,30.50
2018-11-22T07:45:56.070Z,28.47
2018-11-22T07:48:24.285Z,28.33
2018-11-22T07:50:52.531Z,29.47
2018-11-22T07:53:20.862Z,29.97
2018-11-22T07:55:49.111Z,30.23
2018-11-22T07:58:17.420Z,29.50
2018-11-22T08:00:45.734Z,31.83
2018-11-22T08:03:13.985Z,30.77
2018-11-22T08:05:43.205Z,30.17
2018-11-22T08:08:11.479Z,31.67
2018-11-22T08:10:39.703Z,31.23
2018-11-22T08:13:08.005Z,29.97
2018-11-22T08:15:37.852Z,31.07
2018-11-22T08:18:06.159Z,32.07
2018-11-22T08:20:34.409Z,31.73
2018-11-22T08:23:03.839Z,32.80
2018-11-22T08:25:33.028Z,32.63
2018-11-22T08:28:01.370Z,32.57
2018-11-22T08:30:29.634Z,32.03
2018-11-22T08:32:57.935Z,31.17
2018-11-22T08:35:26.314Z,31.73
2018-11-22T08:37:54.545Z,30.00
2018-11-22T08:40:24.165Z,32.23
2018-11-22T08:42:55.251Z,30.23
2018-11-22T08:45:22.336Z,30.17
2018-11-22T08:47:50.608Z,32.80
2018-11-22T08:50:20.400Z,30.70
2018-11-22T08:52:49.901Z,31.23
2018-11-22T08:55:18.624Z,30.33
2018-11-22T08:57:47.014Z,29.83
2018-11-22T09:00:19.403Z,28.63
2018-11-22T09:02:48.012Z,30.33
2018-11-22T09:05:17.638Z,35.17
2018-11-22T09:07:46.125Z,30.03
2018-11-22T09:10:16.083Z,35.17
2018-11-22T09:12:44.870Z,31.23
2018-11-22T09:15:20.323Z,31.20
2018-11-22T09:17:48.959Z,32.03
2018-11-22T09:20:18.509Z,33.70
2018-11-22T09:22:46.897Z,29.67
2018-11-22T09:25:15.967Z,31.00
2018-11-22T09:27:44.560Z,29.07
2018-11-22T09:30:15.116Z,28.27
2018-11-22T09:32:44.360Z,25.93
2018-11-22T09:35:13.188Z,26.97
2018-11-22T09:37:41.601Z,27.87
2018-11-22T09:40:12.144Z,26.03
2018-11-22T09:42:40.879Z,26.93
2018-11-22T09:45:11.150Z,25.80
2018-11-22T09:47:39.447Z,27.20
2018-11-22T09:50:08.310Z,25.73
2018-11-22T09:52:36.582Z,25.10
2018-11-22T09:55:04.936Z,24.37
2018-11-22T09:57:33.164Z,28.13
2018-11-22T10:00:01.406Z,27.43
2018-11-22T10:02:29.635Z,28.80
2018-11-22T10:04:57.981Z,25.90
2018-11-22T10:07:26.137Z,40.27
2018-11-22T10:09:54.379Z,24.80
2018-11-22T10:12:22.610Z,27.03
2018-11-22T10:14:50.819Z,26.87
2018-11-22T10:17:19.040Z,23.30
2018-11-22T10:19:47.359Z,24.63
2018-11-22T10:22:15.543Z,21.57
2018-11-22T10:24:43.793Z,21.30
2018-11-22T10:27:12.063Z,24.40
2018-11-22T10:29:40.301Z,22.33
2018-11-22T10:32:08.610Z,22.63
2018-11-22T10:34:36.835Z,22.30
2018-11-22T10:37:05.131Z,23.60
2018-11-22T10:39:33.349Z,23.00
2018-11-22T10:42:01.554Z,21.83
2018-11-22T10:44:29.788Z,23.10
2018-11-22T10:46:58.010Z,22.40
2018-11-22T10:49:26.285Z,22.80
2018-11-22T10:51:54.541Z,23.70
2018-11-22T10:54:22.760Z,23.03
2018-11-22T10:56:51.003Z,24.00
2018-11-22T10:59:19.218Z,21.67
2018-11-22T11:02:05.126Z,20.53
2018-11-22T11:04:52.575Z,20.57
2018-11-22T11:07:48.831Z,20.33
2018-11-22T11:10:17.603Z,22.43
2018-11-22T11:12:46.058Z,19.83
2018-11-22T11:15:14.255Z,19.10
2018-11-22T11:17:42.537Z,21.00
2018-11-22T11:20:11.645Z,21.60
2018-11-22T11:22:40.209Z,20.97
2018-11-22T11:25:09.270Z,21.20
2018-11-22T11:27:38.199Z,22.10
2018-11-22T11:30:09.027Z,21.60
2018-11-22T11:32:37.283Z,22.57
2018-11-22T11:35:07.828Z,30.70
2018-11-22T11:37:36.075Z,24.20
2018-11-22T11:40:06.784Z,24.30
2018-11-22T11:42:35.092Z,22.67
2018-11-22T11:45:03.940Z,22.57
2018-11-22T11:47:32.876Z,22.63
2018-11-22T11:50:01.563Z,21.63
2018-11-22T11:52:30.562Z,21.30
2018-11-22T11:54:59.523Z,21.33
2018-11-22T11:57:28.977Z,22.57
2018-11-22T11:59:57.434Z,20.30
2018-11-22T12:02:27.767Z,21.20
2018-11-22T12:04:56.123Z,21.80
2018-11-22T12:07:24.405Z,22.17
2018-11-22T12:09:56.237Z,21.63
2018-11-22T12:12:26.913Z,22.13
2018-11-22T12:14:55.394Z,23.93
2018-11-22T12:17:23.797Z,21.33
2018-11-22T12:19:52.119Z,22.17
2018-11-22T12:22:20.396Z,22.20
2018-11-22T12:24:48.813Z,19.30
2018-11-22T12:27:20.105Z,20.27
2018-11-22T12:29:48.792Z,20.80
2018-11-22T12:32:32.942Z,21.30
2018-11-22T12:35:20.597Z,21.30
2018-11-22T12:38:11.411Z,21.10
2018-11-22T12:40:42.543Z,20.73
2018-11-22T12:43:08.647Z,21.73
2018-11-22T12:45:43.722Z,20.10
2018-11-22T12:48:12.287Z,24.67
2018-11-22T12:50:40.829Z,23.53
2018-11-22T12:53:12.149Z,24.33
2018-11-22T12:55:40.551Z,23.37
2018-11-22T12:58:13.730Z,19.90
2018-11-22T13:00:40.743Z,21.70
2018-11-22T13:03:12.107Z,24.00
2018-11-22T13:05:40.575Z,21.70
2018-11-22T13:08:09.178Z,24.87
2018-11-22T13:10:46.403Z,22.07
2018-11-22T13:13:14.759Z,23.20
2018-11-22T13:15:44.443Z,22.37
2018-11-22T13:18:11.431Z,22.43
2018-11-22T13:20:39.671Z,21.67
2018-11-22T13:23:08.449Z,21.83
2018-11-22T13:25:39.837Z,21.63
2018-11-22T13:28:08.120Z,19.93
2018-11-22T13:30:36.540Z,20.00
2018-11-22T13:33:04.934Z,19.70
2018-11-22T13:35:33.319Z,20.13
2018-11-22T13:38:01.640Z,19.67
2018-11-22T13:40:30.228Z,21.53
2018-11-22T13:43:22.462Z,20.63
2018-11-22T13:45:53.865Z,20.57
2018-11-22T13:48:25.316Z,20.53
2018-11-22T13:50:59.518Z,19.43
2018-11-22T13:53:27.945Z,20.10
2018-11-22T13:56:05.551Z,21.87
2018-11-22T13:58:33.793Z,20.57
2018-11-22T14:01:05.611Z,20.43
2018-11-22T14:03:37.400Z,20.20
2018-11-22T14:06:08.366Z,22.97
2018-11-22T14:08:39.733Z,37.60
2018-11-22T14:11:13.747Z,24.30
2018-11-22T14:13:39.175Z,21.23
2018-11-22T14:16:07.641Z,21.27
2018-11-22T14:18:39.761Z,19.77
2018-11-22T14:21:08.067Z,19.10
2018-11-22T14:23:36.753Z,21.43
2018-11-22T14:26:13.676Z,26.83
2018-11-22T14:28:42.599Z,27.37
2018-11-22T14:31:10.982Z,20.97
2018-11-22T14:33:42.207Z,20.27
2018-11-22T14:36:14.295Z,22.90
2018-11-22T14:38:50.230Z,21.07
2018-11-22T14:41:17.421Z,21.13
2018-11-22T14:43:58.243Z,20.80
2018-11-22T14:46:26.843Z,21.60
2018-11-22T14:48:58.373Z,20.73
2018-11-22T14:51:45.334Z,20.80
2018-11-22T14:54:14.314Z,20.10
2018-11-22T14:56:42.652Z,20.77
2018-11-22T14:59:21.313Z,20.80
2018-11-22T15:01:54.751Z,20.00
2018-11-22T15:04:23.305Z,20.93
2018-11-22T15:06:56.758Z,20.23
2018-11-22T15:09:28.343Z,19.77
2018-11-22T15:11:59.759Z,19.63
2018-11-22T15:14:31.391Z,19.73
2018-11-22T15:17:01.614Z,20.53
2018-11-22T15:19:40.918Z,18.10
2018-11-22T15:22:09.197Z,19.20
2018-11-22T15:24:37.404Z,20.47
2018-11-22T15:27:06.040Z,20.00
2018-11-22T15:29:34.863Z,20.00
2018-11-22T15:32:07.788Z,19.53
2018-11-22T15:34:31.658Z,20.63
2018-11-22T15:37:03.397Z,24.53
2018-11-22T15:39:31.923Z,37.90
2018-11-22T15:42:05.962Z,31.80
2018-11-22T15:44:55.845Z,27.57
2018-11-22T15:47:25.989Z,40.53
2018-11-22T15:49:58.617Z,33.27
2018-11-22T15:53:23.117Z,24.60
2018-11-22T15:55:54.734Z,27.17
2018-11-22T15:58:26.403Z,30.90
2018-11-22T16:01:22.712Z,31.63
2018-11-22T16:03:51.338Z,26.57
2018-11-22T16:06:19.948Z,32.53
2018-11-22T16:09:26.243Z,22.97
2018-11-22T16:11:59.858Z,23.80
2018-11-22T16:14:53.927Z,23.57
2018-11-22T16:17:35.088Z,23.60
2018-11-22T16:20:25.751Z,23.53
2018-11-22T16:26:54.729Z,21.70
2018-11-22T16:29:25.252Z,20.30
2018-11-22T16:31:56.236Z,20.53
2018-11-22T16:34:27.539Z,20.87
2018-11-22T16:36:56.366Z,21.00
2018-11-22T16:39:30.998Z,22.30
2018-11-22T16:41:59.380Z,20.73
2018-11-22T16:44:27.862Z,21.23
2018-11-22T16:46:56.198Z,24.00
2018-11-22T16:49:24.675Z,22.87
2018-11-22T16:51:53.194Z,22.30
2018-11-22T16:54:28.238Z,20.57
2018-11-22T16:57:19.484Z,22.87
2018-11-22T16:59:48.024Z,23.03
2018-11-22T17:02:16.509Z,24.00
2018-11-22T17:05:02.966Z,23.67
2018-11-22T17:07:39.642Z,24.93
2018-11-22T17:10:12.261Z,27.03
2018-11-22T17:12:43.808Z,28.83
2018-11-22T17:15:14.151Z,32.13
2018-11-22T17:17:42.965Z,25.93
2018-11-22T17:20:12.946Z,28.50
2018-11-22T17:22:44.092Z,24.50
2018-11-22T17:25:38.584Z,25.43
2018-11-22T17:28:12.489Z,26.73
2018-11-22T17:31:00.967Z,25.50
2018-11-22T17:33:36.218Z,23.70
2018-11-22T17:36:06.785Z,22.00
2018-11-22T17:38:36.300Z,22.20
2018-11-22T17:41:09.791Z,23.40
2018-11-22T17:43:38.375Z,23.40
2018-11-22T17:46:07.085Z,23.57
2018-11-22T17:48:35.376Z,22.87
2018-11-22T17:51:03.718Z,22.67
2018-11-22T17:53:31.999Z,22.97
2018-11-22T17:56:00.408Z,22.63
2018-11-22T17:58:28.657Z,23.33
2018-11-22T18:00:56.973Z,22.97
2018-11-22T18:03:25.227Z,24.37
2018-11-22T18:05:53.517Z,23.07
2018-11-22T18:08:21.872Z,22.17
2018-11-22T18:10:50.112Z,23.60
2018-11-22T18:13:18.603Z,38.63
2018-11-22T18:15:56.622Z,43.53
2018-11-22T18:18:25.727Z,37.93
2018-11-22T18:20:54.181Z,26.10
2018-11-22T18:23:22.542Z,24.57
2018-11-22T18:25:50.839Z,24.17
2018-11-22T18:28:19.216Z,23.40
2018-11-22T18:30:47.487Z,24.93
2018-11-22T18:33:15.840Z,25.07
2018-11-22T18:35:44.122Z,24.77
2018-11-22T18:38:12.360Z,26.17
2018-11-22T18:40:41.890Z,25.07
2018-11-22T18:43:10.597Z,26.40
2018-11-22T18:45:40.419Z,28.60
2018-11-22T18:48:10.953Z,25.97
2018-11-22T18:50:39.936Z,26.27
2018-11-22T18:53:08.468Z,23.93
2018-11-22T18:55:36.741Z,24.07
2018-11-22T18:58:05.445Z,23.23
2018-11-22T19:00:35.148Z,25.13
2018-11-22T19:06:09.961Z,24.77
2018-11-22T19:08:38.266Z,29.33
2018-11-22T19:11:06.540Z,26.03
2018-11-22T19:13:34.861Z,24.57
2018-11-22T19:16:03.141Z,23.73
2018-11-22T19:18:31.388Z,25.03
2018-11-22T19:20:59.732Z,26.00
2018-11-22T19:23:27.996Z,26.93
2018-11-22T19:25:56.298Z,27.00
2018-11-22T19:28:24.555Z,26.23
2018-11-22T19:30:52.866Z,25.90
2018-11-22T19:33:21.242Z,26.33
2018-11-22T19:35:51.435Z,24.90
2018-11-22T19:38:19.808Z,25.27
2018-11-22T19:40:48.237Z,25.27
2018-11-22T19:43:16.535Z,25.07
2018-11-22T19:45:46.297Z,25.60
2018-11-22T19:48:14.634Z,24.87
2018-11-22T19:50:42.862Z,24.23
2018-11-22T19:53:12.531Z,25.33
2018-11-22T19:55:41.027Z,25.50
2018-11-22T19:58:10.621Z,30.87
2018-11-22T20:00:38.892Z,25.37
2018-11-22T20:03:07.799Z,24.20
2018-11-22T20:05:37.395Z,24.73
2018-11-22T20:08:08.165Z,26.47
2018-11-22T20:10:38.974Z,23.77
2018-11-22T20:13:07.251Z,25.30
2018-11-22T20:15:35.845Z,29.17
2018-11-22T20:18:05.487Z,27.97
2018-11-22T20:20:33.645Z,26.03
2018-11-22T20:23:01.991Z,25.73
2018-11-22T20:25:30.198Z,27.93
2018-11-22T20:27:58.438Z,29.20
2018-11-22T20:30:29.368Z,27.27
2018-11-22T20:32:57.587Z,27.13
2018-11-22T20:35:25.790Z,30.83
2018-11-22T20:37:54.419Z,37.33
2018-11-22T20:40:23.913Z,49.10
2018-11-22T20:42:52.140Z,41.63
2018-11-22T20:45:21.796Z,29.03
2018-11-22T20:47:51.501Z,30.57
2018-11-22T20:50:21.027Z,30.57
2018-11-22T20:52:49.368Z,26.67
2018-11-22T20:55:20.703Z,29.93
2018-11-22T20:57:50.329Z,26.87
2018-11-22T21:00:19.957Z,26.47
2018-11-22T21:02:48.205Z,24.30
2018-11-22T21:05:17.192Z,30.93
2018-11-22T21:07:45.708Z,27.30
2018-11-22T21:10:16.362Z,27.40
2018-11-22T21:12:44.869Z,33.27
2018-11-22T21:15:16.352Z,27.53
2018-11-22T21:17:45.333Z,27.90
2018-11-22T21:20:14.825Z,30.47
2018-11-22T21:22:50.570Z,27.43
2018-11-22T21:25:20.658Z,26.37
2018-11-22T21:27:49.958Z,25.83
2018-11-22T21:30:36.585Z,26.27
2018-11-22T21:33:05.600Z,25.77
2018-11-22T21:35:34.070Z,25.87
2018-11-22T21:38:03.102Z,24.83
2018-11-22T21:40:31.919Z,21.67
2018-11-22T21:43:00.155Z,25.77
2018-11-22T21:45:30.115Z,24.13
2018-11-22T21:47:58.449Z,23.13
2018-11-22T21:50:29.242Z,25.03
2018-11-22T21:53:00.561Z,27.07
2018-11-22T21:55:29.661Z,22.13
2018-11-22T21:57:59.034Z,22.23
2018-11-22T22:00:30.620Z,21.27
2018-11-22T22:03:02.358Z,26.00
2018-11-22T22:05:30.743Z,21.87
2018-11-22T22:07:58.988Z,20.87
2018-11-22T22:10:27.221Z,21.00
2018-11-22T22:12:55.522Z,20.57
2018-11-22T22:15:25.095Z,21.80
2018-11-22T22:17:53.271Z,21.07
2018-11-22T22:20:23.908Z,21.37
2018-11-22T22:22:52.128Z,20.27
2018-11-22T22:25:21.432Z,22.57
2018-11-22T22:27:50.322Z,22.87
2018-11-22T22:30:19.940Z,21.83
2018-11-22T22:32:49.027Z,22.53
2018-11-22T22:35:17.272Z,23.83
2018-11-22T22:37:45.515Z,21.93
2018-11-22T22:40:22.035Z,23.03
2018-11-22T22:42:51.250Z,21.90
2018-11-22T22:45:20.324Z,23.13
2018-11-22T22:47:49.133Z,23.10
2018-11-22T22:50:18.519Z,22.50
2018-11-22T22:52:47.437Z,20.80
2018-11-22T22:55:15.655Z,24.03
2018-11-22T22:57:44.226Z,23.83
2018-11-22T23:01:32.727Z,24.57
2018-11-22T23:04:00.918Z,24.33
2018-11-22T23:06:29.125Z,22.90
2018-11-22T23:08:57.575Z,24.27
2018-11-22T23:11:29.319Z,23.60
2018-11-22T23:13:57.875Z,22.60
2018-11-22T23:16:26.123Z,23.00
2018-11-22T23:18:54.335Z,22.60
2018-11-22T23:21:22.720Z,23.27
2018-11-22T23:23:52.963Z,22.83
2018-11-22T23:26:22.412Z,23.40
2018-11-22T23:28:52.934Z,22.07
2018-11-22T23:34:00.139Z,21.83
2018-11-22T23:36:29.640Z,22.33
2018-11-22T23:38:58.431Z,21.77
2018-11-22T23:41:26.730Z,22.97
2018-11-22T23:43:54.968Z,22.63
2018-11-22T23:46:23.300Z,22.93
2018-11-22T23:48:51.594Z,23.37
2018-11-22T23:51:19.919Z,22.83
2018-11-22T23:53:48.317Z,23.60
2018-11-22T23:56:16.616Z,22.53
2018-11-22T23:58:44.869Z,24.93
